createdAt,value
2022-10-14T00:00:16.719Z,75.57
2022-10-14T00:02:43.521Z,75.70
2022-10-14T00:05:10.421Z,75.91
2022-10-14T00:07:37.896Z,75.88
2022-10-14T00:10:06.238Z,75.81
2022-10-14T00:12:34.047Z,76.05
2022-10-14T00:15:00.911Z,76.22
2022-10-14T00:17:27.800Z,76.27
2022-10-14T00:19:54.595Z,76.27
2022-10-14T00:22:21.390Z,76.32
2022-10-14T00:24:48.126Z,76.44
2022-10-14T00:27:15.240Z,76.50
2022-10-14T00:29:41.969Z,76.40
2022-10-14T00:32:08.768Z,76.25
2022-10-14T00:34:35.994Z,76.39
2022-10-14T00:37:04.402Z,76.33
2022-10-14T00:39:31.147Z,76.42
2022-10-14T00:41:57.934Z,76.58
2022-10-14T00:44:24.566Z,76.77
2022-10-14T00:46:51.714Z,76.84
2022-10-14T00:49:40.901Z,77.18
2022-10-14T00:52:22.250Z,77.18
2022-10-14T00:55:06.229Z,77.18
2022-10-14T00:57:33.135Z,77.56
2022-10-14T01:00:10.227Z,77.24
2022-10-14T01:02:37.321Z,77.48
2022-10-14T01:05:06.910Z,77.55
2022-10-14T01:07:36.587Z,77.62
2022-10-14T01:10:08.336Z,77.82
2022-10-14T01:12:59.786Z,78.38
2022-10-14T01:15:41.658Z,78.02
2022-10-14T01:18:17.854Z,77.85
2022-10-14T01:20:44.558Z,77.89
2022-10-14T01:23:39.103Z,78.11
2022-10-14T01:26:39.909Z,77.79
2022-10-14T01:29:18.443Z,77.78
2022-10-14T01:31:57.219Z,77.77
2022-10-14T01:34:31.368Z,77.64
2022-10-14T01:37:05.145Z,77.59
2022-10-14T01:39:38.043Z,77.69
2022-10-14T01:42:16.518Z,77.97
2022-10-14T01:44:49.008Z,77.70
2022-10-14T01:47:20.914Z,77.59
2022-10-14T01:49:53.083Z,77.64
2022-10-14T01:52:27.566Z,77.72
2022-10-14T01:54:57.396Z,77.51
2022-10-14T01:57:30.615Z,77.58
2022-10-14T01:59:59.350Z,77.56
2022-10-14T02:02:26.317Z,77.68
2022-10-14T02:04:53.416Z,77.77
2022-10-14T02:07:28.076Z,77.94
2022-10-14T02:09:54.808Z,77.81
2022-10-14T02:12:54.285Z,78.03
2022-10-14T02:15:53.504Z,78.09
2022-10-14T02:18:38.896Z,77.86
2022-10-14T02:21:17.418Z,77.78
2022-10-14T02:23:54.092Z,77.81
2022-10-14T02:26:24.441Z,77.91
2022-10-14T02:28:53.423Z,77.79
2022-10-14T02:31:21.469Z,77.86
2022-10-14T02:33:53.643Z,77.81
2022-10-14T02:36:23.124Z,77.70
2022-10-14T02:38:50.604Z,77.64
2022-10-14T02:41:21.863Z,77.79
2022-10-14T02:43:48.826Z,77.62
2022-10-14T02:46:15.677Z,77.65
2022-10-14T02:48:42.461Z,77.64
2022-10-14T02:51:09.443Z,77.37
2022-10-14T02:53:38.169Z,77.57
2022-10-14T02:56:05.849Z,77.61
2022-10-14T02:58:34.200Z,77.55
2022-10-14T03:01:01.002Z,77.64
2022-10-14T03:03:28.661Z,77.31
2022-10-14T03:05:55.403Z,77.31
2022-10-14T03:08:22.514Z,77.31
2022-10-14T03:10:49.337Z,77.29
2022-10-14T03:13:16.662Z,77.41
2022-10-14T03:15:49.518Z,77.52
2022-10-14T03:18:19.357Z,77.60
2022-10-14T03:20:48.777Z,77.60
2022-10-14T03:23:20.860Z,77.66
2022-10-14T03:25:50.256Z,77.66
2022-10-14T03:28:25.295Z,77.65
2022-10-14T03:31:00.236Z,77.71
2022-10-14T03:33:46.809Z,77.54
2022-10-14T03:36:17.724Z,77.51
2022-10-14T03:38:47.335Z,77.20
2022-10-14T03:41:37.333Z,77.63
2022-10-14T03:44:05.962Z,77.70
2022-10-14T03:46:34.843Z,77.72
2022-10-14T03:49:02.342Z,77.95
2022-10-14T03:51:29.725Z,77.88
2022-10-14T03:54:07.423Z,77.96
2022-10-14T03:56:35.379Z,77.88
2022-10-14T03:59:02.859Z,77.95
2022-10-14T04:01:29.905Z,78.01
2022-10-14T04:04:20.067Z,78.09
2022-10-14T04:06:47.391Z,78.20
2022-10-14T04:09:16.864Z,77.96
2022-10-14T04:11:43.749Z,78.05
2022-10-14T04:14:29.247Z,78.11
2022-10-14T04:16:56.584Z,77.88
2022-10-14T04:19:23.352Z,77.87
2022-10-14T04:21:50.328Z,77.99
2022-10-14T04:24:20.761Z,77.99
2022-10-14T04:26:53.506Z,78.10
2022-10-14T04:29:45.098Z,78.20
2022-10-14T04:32:17.845Z,78.13
2022-10-14T04:34:46.776Z,78.21
2022-10-14T04:37:17.252Z,78.25
2022-10-14T04:40:05.431Z,78.32
2022-10-14T04:42:38.635Z,78.56
2022-10-14T04:45:10.982Z,78.33
2022-10-14T04:47:50.475Z,78.51
2022-10-14T04:50:20.561Z,78.29
2022-10-14T04:53:10.583Z,78.37
2022-10-14T04:55:49.622Z,78.40
2022-10-14T04:58:17.236Z,78.54
2022-10-14T05:00:46.958Z,78.50
2022-10-14T05:03:26.195Z,78.48
2022-10-14T05:05:52.993Z,78.49
2022-10-14T05:08:20.726Z,78.42
2022-10-14T05:10:51.408Z,78.61
2022-10-14T05:13:33.152Z,77.95
2022-10-14T05:16:05.388Z,78.23
2022-10-14T05:18:33.309Z,78.23
2022-10-14T05:21:08.035Z,78.30
2022-10-14T05:23:53.388Z,78.23
2022-10-14T05:26:20.611Z,78.29
2022-10-14T05:28:51.329Z,78.14
2022-10-14T05:31:19.558Z,78.22
2022-10-14T05:33:55.203Z,78.12
2022-10-14T05:36:22.091Z,77.98
2022-10-14T05:38:50.670Z,78.11
2022-10-14T05:41:21.519Z,78.07
2022-10-14T05:43:48.666Z,78.27
2022-10-14T05:46:16.567Z,78.52
2022-10-14T05:48:48.791Z,78.83
2022-10-14T05:51:16.686Z,78.92
2022-10-14T05:53:43.680Z,78.89
2022-10-14T05:56:15.756Z,78.91
2022-10-14T05:58:42.543Z,78.96
2022-10-14T06:01:11.374Z,79.03
2022-10-14T06:03:40.655Z,79.47
2022-10-14T06:06:14.720Z,78.87
2022-10-14T06:08:42.502Z,78.88
2022-10-14T06:11:09.454Z,78.91
2022-10-14T06:13:36.323Z,78.94
2022-10-14T06:16:11.086Z,78.82
2022-10-14T06:18:38.300Z,79.02
2022-10-14T06:21:07.586Z,79.10
2022-10-14T06:23:34.349Z,79.02
2022-10-14T06:26:05.262Z,79.09
2022-10-14T06:28:32.405Z,79.00
2022-10-14T06:30:59.170Z,79.18
2022-10-14T06:33:28.853Z,79.07
2022-10-14T06:35:55.916Z,79.07
2022-10-14T06:38:23.220Z,79.26
2022-10-14T06:40:54.510Z,79.07
2022-10-14T06:43:22.246Z,79.08
2022-10-14T06:45:49.420Z,79.18
2022-10-14T06:48:16.444Z,79.06
2022-10-14T06:50:43.237Z,79.28
2022-10-14T06:53:10.046Z,79.22
2022-10-14T06:55:36.805Z,79.31
2022-10-14T06:58:03.645Z,79.11
2022-10-14T07:00:30.445Z,79.15
2022-10-14T07:02:59.361Z,79.08
2022-10-14T07:05:26.873Z,79.17
2022-10-14T07:07:53.773Z,79.16
2022-10-14T07:10:20.873Z,79.21
2022-10-14T07:12:47.713Z,79.10
2022-10-14T07:15:14.803Z,79.08
2022-10-14T07:17:41.558Z,79.35
2022-10-14T07:20:08.783Z,79.37
2022-10-14T07:22:38.960Z,79.63
2022-10-14T07:25:06.763Z,79.66
2022-10-14T07:27:33.542Z,80.04
2022-10-14T07:30:02.876Z,80.05
2022-10-14T07:32:29.619Z,80.14
2022-10-14T07:34:56.695Z,80.34
2022-10-14T07:37:23.921Z,80.63
2022-10-14T07:39:51.013Z,80.97
2022-10-14T07:42:17.762Z,80.85
2022-10-14T07:44:45.941Z,80.66
2022-10-14T07:47:13.205Z,80.73
2022-10-14T07:49:40.024Z,80.89
2022-10-14T07:52:06.784Z,81.01
2022-10-14T07:54:33.630Z,81.06
2022-10-14T07:57:00.511Z,81.31
2022-10-14T07:59:27.305Z,81.06
2022-10-14T08:01:56.585Z,81.31
2022-10-14T08:04:24.203Z,81.02
2022-10-14T08:06:51.714Z,81.01
2022-10-14T08:09:19.559Z,80.93
2022-10-14T08:11:46.469Z,80.80
2022-10-14T08:14:13.482Z,80.81
2022-10-14T08:16:40.741Z,80.47
2022-10-14T08:19:14.196Z,80.16
2022-10-14T08:21:43.231Z,80.08
2022-10-14T08:24:10.704Z,79.89
2022-10-14T08:26:50.011Z,80.02
2022-10-14T08:29:16.864Z,79.78
2022-10-14T08:31:43.596Z,79.76
2022-10-14T08:34:11.320Z,79.39
2022-10-14T08:36:38.167Z,79.26
2022-10-14T08:39:05.892Z,79.26
2022-10-14T08:42:09.860Z,79.06
2022-10-14T08:44:45.317Z,79.02
2022-10-14T08:47:20.435Z,78.77
2022-10-14T08:49:58.708Z,78.83
2022-10-14T08:52:43.132Z,78.93
2022-10-14T08:55:32.969Z,78.93
2022-10-14T08:58:19.055Z,78.40
2022-10-14T09:00:50.090Z,78.03
2022-10-14T09:03:21.457Z,78.08
2022-10-14T09:06:02.301Z,77.93
2022-10-14T09:08:38.114Z,77.50
2022-10-14T09:11:10.212Z,77.22
2022-10-14T09:13:40.027Z,77.07
2022-10-14T09:16:14.709Z,76.76
2022-10-14T09:18:54.829Z,76.47
2022-10-14T09:21:54.720Z,76.55
2022-10-14T09:24:27.427Z,76.82
2022-10-14T09:26:58.608Z,76.81
2022-10-14T09:29:27.437Z,76.07
2022-10-14T09:31:58.471Z,75.75
2022-10-14T09:34:46.228Z,75.24
2022-10-14T09:37:51.576Z,74.28
2022-10-14T09:40:24.151Z,75.01
2022-10-14T09:43:15.041Z,74.79
2022-10-14T09:45:47.830Z,75.07
2022-10-14T09:48:32.414Z,74.71
2022-10-14T09:51:02.537Z,74.19
2022-10-14T09:53:34.348Z,73.48
2022-10-14T09:56:03.911Z,73.53
2022-10-14T09:58:39.745Z,73.93
2022-10-14T10:01:12.886Z,73.69
2022-10-14T10:03:41.234Z,73.61
2022-10-14T10:06:13.779Z,73.56
2022-10-14T10:08:55.315Z,73.64
2022-10-14T10:11:39.590Z,73.48
2022-10-14T10:14:26.284Z,72.69
2022-10-14T10:17:08.238Z,72.18
2022-10-14T10:19:37.623Z,72.45
2022-10-14T10:22:31.610Z,72.75
2022-10-14T10:25:01.192Z,72.69
2022-10-14T10:27:37.674Z,72.88
2022-10-14T10:30:25.205Z,73.03
2022-10-14T10:32:57.884Z,73.20
2022-10-14T10:35:35.230Z,73.01
2022-10-14T10:38:20.684Z,73.08
2022-10-14T10:41:06.441Z,72.83
2022-10-14T10:44:06.615Z,72.59
2022-10-14T10:47:18.358Z,72.75
2022-10-14T10:50:18.249Z,72.91
2022-10-14T10:52:51.817Z,72.82
2022-10-14T10:55:39.818Z,71.71
2022-10-14T10:58:40.624Z,70.98
2022-10-14T11:01:26.340Z,71.28
2022-10-14T11:04:07.251Z,71.35
2022-10-14T11:07:11.604Z,70.14
2022-10-14T11:10:21.822Z,69.77
2022-10-14T11:12:57.498Z,70.30
2022-10-14T11:15:48.297Z,70.26
2022-10-14T11:18:45.642Z,69.58
2022-10-14T11:21:38.805Z,69.71
2022-10-14T11:24:08.598Z,70.04
2022-10-14T11:26:53.554Z,69.49
2022-10-14T11:29:23.263Z,69.18
2022-10-14T11:32:14.336Z,68.76
2022-10-14T11:34:41.068Z,68.39
2022-10-14T11:37:21.879Z,66.58
2022-10-14T11:39:55.687Z,66.60
2022-10-14T11:42:54.621Z,67.18
2022-10-14T11:45:37.482Z,67.04
2022-10-14T11:48:24.451Z,65.57
2022-10-14T11:51:07.326Z,67.09
2022-10-14T11:53:49.160Z,65.79
2022-10-14T11:56:34.592Z,65.90
2022-10-14T11:59:23.193Z,66.87
2022-10-14T12:01:58.040Z,67.00
2022-10-14T12:04:41.411Z,66.64
2022-10-14T12:07:35.613Z,66.35
2022-10-14T12:10:14.522Z,67.42
2022-10-14T12:12:43.042Z,67.22
2022-10-14T12:15:23.235Z,67.50
2022-10-14T12:17:57.915Z,67.44
2022-10-14T12:20:47.868Z,67.18
2022-10-14T12:23:30.388Z,67.35
2022-10-14T12:26:10.968Z,67.06
2022-10-14T12:28:38.456Z,65.92
2022-10-14T12:31:36.730Z,65.25
2022-10-14T12:34:13.656Z,66.24
2022-10-14T12:36:43.373Z,65.91
2022-10-14T12:39:19.525Z,65.47
2022-10-14T12:42:05.633Z,66.06
2022-10-14T12:44:48.638Z,65.64
2022-10-14T12:47:21.007Z,65.43
2022-10-14T12:49:54.276Z,64.72
2022-10-14T12:52:25.814Z,65.51
2022-10-14T12:54:53.172Z,65.14
2022-10-14T12:57:42.291Z,65.05
2022-10-14T13:00:36.011Z,64.89
2022-10-14T13:03:05.416Z,65.09
2022-10-14T13:05:43.694Z,64.53
2022-10-14T13:08:19.674Z,63.26
2022-10-14T13:11:09.512Z,63.72
2022-10-14T13:13:42.584Z,63.75
2022-10-14T13:16:11.095Z,62.99
2022-10-14T13:18:43.747Z,62.85
2022-10-14T13:21:25.855Z,62.48
2022-10-14T13:23:55.274Z,63.07
2022-10-14T13:26:28.149Z,62.69
2022-10-14T13:29:13.071Z,62.10
2022-10-14T13:31:58.234Z,62.69
2022-10-14T13:34:58.798Z,62.77
2022-10-14T13:37:45.581Z,62.88
2022-10-14T13:40:29.025Z,61.72
2022-10-14T13:43:01.776Z,62.13
2022-10-14T13:45:39.653Z,62.33
2022-10-14T13:48:17.004Z,62.30
2022-10-14T13:50:46.937Z,62.47
2022-10-14T13:53:20.506Z,61.90
2022-10-14T13:55:55.091Z,61.99
2022-10-14T13:58:23.837Z,62.64
2022-10-14T14:00:59.387Z,62.68
2022-10-14T14:03:29.264Z,63.01
2022-10-14T14:05:58.317Z,63.09
2022-10-14T14:08:40.824Z,63.21
2022-10-14T14:11:18.194Z,63.83
2022-10-14T14:14:08.361Z,63.81
2022-10-14T14:16:41.597Z,63.62
2022-10-14T14:19:20.026Z,63.84
2022-10-14T14:21:46.834Z,63.97
2022-10-14T14:24:22.381Z,64.18
2022-10-14T14:26:55.496Z,63.95
2022-10-14T14:29:28.815Z,64.04
2022-10-14T14:32:07.037Z,64.37
2022-10-14T14:34:38.795Z,64.42
2022-10-14T14:40:06.452Z,64.61
2022-10-14T14:42:37.389Z,64.45
2022-10-14T14:45:06.391Z,64.42
2022-10-14T14:47:33.817Z,64.85
2022-10-14T14:50:25.285Z,64.92
2022-10-14T14:52:49.099Z,65.00
2022-10-14T14:55:37.733Z,64.77
2022-10-14T14:58:14.184Z,64.88
2022-10-14T15:00:45.952Z,65.31
2022-10-14T15:03:13.754Z,65.42
2022-10-14T15:05:40.638Z,65.58
2022-10-14T15:08:23.396Z,65.41
2022-10-14T15:10:51.266Z,65.43
2022-10-14T15:13:42.354Z,65.35
2022-10-14T15:16:09.409Z,65.59
2022-10-14T15:18:37.925Z,65.32
2022-10-14T15:21:19.354Z,65.12
2022-10-14T15:23:49.247Z,65.36
2022-10-14T15:26:42.268Z,64.89
2022-10-14T15:29:09.135Z,65.44
2022-10-14T15:31:38.026Z,65.34
2022-10-14T15:34:05.534Z,65.45
2022-10-14T15:36:34.448Z,65.43
2022-10-14T15:39:02.555Z,65.49
2022-10-14T15:41:29.595Z,65.59
2022-10-14T15:43:56.565Z,65.44
2022-10-14T15:46:42.016Z,65.67
2022-10-14T15:49:20.192Z,65.97
2022-10-14T15:51:47.261Z,66.11
2022-10-14T15:54:17.027Z,66.29
2022-10-14T15:56:44.269Z,66.38
2022-10-14T15:59:11.318Z,66.38
2022-10-14T16:01:39.997Z,66.33
2022-10-14T16:04:31.137Z,66.40
2022-10-14T16:06:58.187Z,66.42
2022-10-14T16:09:27.822Z,66.69
2022-10-14T16:11:57.577Z,66.77
2022-10-14T16:14:25.363Z,66.97
2022-10-14T16:16:52.126Z,67.09
2022-10-14T16:19:18.909Z,67.17
2022-10-14T16:21:45.723Z,67.19
2022-10-14T16:24:20.368Z,67.24
2022-10-14T16:26:51.484Z,67.42
2022-10-14T16:29:19.519Z,67.46
2022-10-14T16:31:50.858Z,67.57
2022-10-14T16:34:26.896Z,67.64
2022-10-14T16:36:53.706Z,67.76
2022-10-14T16:39:20.639Z,67.96
2022-10-14T16:41:48.605Z,68.12
2022-10-14T16:44:26.833Z,68.38
2022-10-14T16:47:14.202Z,68.58
2022-10-14T16:49:41.264Z,68.49
2022-10-14T16:52:08.706Z,68.79
2022-10-14T16:54:37.589Z,68.85
2022-10-14T16:57:05.035Z,69.06
2022-10-14T16:59:33.058Z,69.24
2022-10-14T17:02:00.670Z,69.47
2022-10-14T17:04:27.912Z,69.52
2022-10-14T17:06:58.380Z,69.61
2022-10-14T17:12:01.208Z,69.93
2022-10-14T17:14:28.054Z,70.01
2022-10-14T17:16:54.806Z,70.10
2022-10-14T17:19:24.002Z,70.01
2022-10-14T17:21:50.788Z,70.12
2022-10-14T17:24:17.767Z,70.13
2022-10-14T17:26:45.442Z,70.18
2022-10-14T17:29:12.245Z,70.30
2022-10-14T17:31:39.052Z,70.26
2022-10-14T17:34:08.871Z,70.38
2022-10-14T17:36:35.999Z,70.39
2022-10-14T17:39:03.569Z,70.46
2022-10-14T17:41:31.128Z,70.67
2022-10-14T17:44:00.086Z,70.53
2022-10-14T17:46:29.255Z,70.52
2022-10-14T17:48:58.891Z,70.66
2022-10-14T17:51:27.751Z,70.58
2022-10-14T17:53:58.267Z,70.55
2022-10-14T17:56:26.980Z,70.75
2022-10-14T17:58:55.582Z,70.76
2022-10-14T18:01:36.801Z,70.70
2022-10-14T18:04:09.797Z,70.92
2022-10-14T18:06:37.422Z,70.89
2022-10-14T18:09:07.818Z,71.01
2022-10-14T18:14:29.566Z,70.74
2022-10-14T18:16:59.640Z,70.87
2022-10-14T18:19:29.524Z,70.84
2022-10-14T18:21:56.812Z,70.82
2022-10-14T18:24:28.420Z,70.90
2022-10-14T18:26:55.890Z,70.93
2022-10-14T18:29:23.776Z,70.97
2022-10-14T18:34:19.524Z,71.13
2022-10-14T18:36:48.118Z,71.03
2022-10-14T18:39:15.786Z,71.10
2022-10-14T18:41:44.524Z,71.07
2022-10-14T18:44:12.141Z,70.96
2022-10-14T18:46:40.650Z,71.45
2022-10-14T18:49:10.720Z,71.54
2022-10-14T18:51:39.536Z,71.39
2022-10-14T18:54:18.619Z,71.33
2022-10-14T18:56:46.157Z,71.57
2022-10-14T18:59:20.886Z,71.45
2022-10-14T19:01:53.350Z,71.48
2022-10-14T19:04:23.474Z,71.39
2022-10-14T19:06:50.799Z,71.49
2022-10-14T19:09:24.565Z,71.62
2022-10-14T19:11:52.382Z,71.66
2022-10-14T19:14:19.178Z,71.65
2022-10-14T19:16:47.662Z,71.91
2022-10-14T19:19:18.322Z,71.85
2022-10-14T19:21:46.140Z,71.97
2022-10-14T19:24:13.704Z,71.93
2022-10-14T19:26:43.973Z,72.11
2022-10-14T19:29:13.100Z,71.95
2022-10-14T19:31:41.245Z,71.98
2022-10-14T19:34:11.627Z,72.16
2022-10-14T19:36:39.679Z,72.32
2022-10-14T19:39:08.852Z,72.49
2022-10-14T19:41:42.734Z,72.59
2022-10-14T19:44:10.557Z,72.64
2022-10-14T19:46:39.951Z,72.68
2022-10-14T19:49:06.861Z,72.94
2022-10-14T19:51:34.926Z,73.09
2022-10-14T19:54:01.804Z,73.26
2022-10-14T19:56:29.551Z,73.34
2022-10-14T19:58:58.330Z,73.68
2022-10-14T20:01:27.632Z,73.82
2022-10-14T20:03:54.598Z,73.91
2022-10-14T20:06:22.643Z,74.06
2022-10-14T20:08:50.046Z,74.29
2022-10-14T20:11:19.196Z,74.11
2022-10-14T20:13:47.202Z,74.21
2022-10-14T20:16:14.307Z,74.33
2022-10-14T20:18:41.735Z,74.19
2022-10-14T20:21:10.523Z,74.22
2022-10-14T20:23:40.814Z,74.19
2022-10-14T20:26:11.287Z,74.12
2022-10-14T20:28:38.830Z,74.19
2022-10-14T20:31:07.492Z,74.19
2022-10-14T20:33:34.294Z,74.35
2022-10-14T20:36:03.786Z,74.62
2022-10-14T20:38:30.973Z,74.76
2022-10-14T20:41:15.223Z,75.28
2022-10-14T20:43:44.018Z,75.36
2022-10-14T20:46:11.108Z,75.92
2022-10-14T20:48:38.180Z,76.55
2022-10-14T20:51:09.913Z,76.67
2022-10-14T20:53:36.891Z,76.91
2022-10-14T20:56:11.208Z,77.21
2022-10-14T20:58:38.381Z,77.34
2022-10-14T21:01:13.788Z,77.38
2022-10-14T21:03:42.422Z,77.35
2022-10-14T21:06:12.148Z,77.50
2022-10-14T21:08:39.290Z,78.13
2022-10-14T21:11:13.669Z,78.34
2022-10-14T21:13:45.537Z,78.38
2022-10-14T21:16:19.707Z,78.43
2022-10-14T21:18:55.145Z,78.80
2022-10-14T21:21:26.538Z,79.04
2022-10-14T21:23:54.003Z,79.41
2022-10-14T21:26:20.818Z,79.69
2022-10-14T21:28:47.672Z,80.07
2022-10-14T21:31:17.563Z,80.22
2022-10-14T21:33:54.045Z,80.55
2022-10-14T21:36:20.831Z,80.94
2022-10-14T21:38:47.618Z,81.29
2022-10-14T21:41:14.484Z,81.62
2022-10-14T21:43:41.801Z,81.85
2022-10-14T21:46:14.246Z,82.04
2022-10-14T21:48:42.517Z,82.11
2022-10-14T21:51:12.197Z,82.32
2022-10-14T21:53:41.415Z,82.11
2022-10-14T21:56:09.393Z,82.07
2022-10-14T21:58:36.815Z,82.21
2022-10-14T22:01:15.273Z,82.32
2022-10-14T22:03:43.506Z,82.26
2022-10-14T22:06:15.900Z,82.21
2022-10-14T22:08:45.534Z,82.17
2022-10-14T22:11:27.986Z,82.44
2022-10-14T22:13:59.936Z,82.41
2022-10-14T22:16:29.457Z,82.69
2022-10-14T22:19:00.077Z,82.86
2022-10-14T22:21:28.751Z,83.16
2022-10-14T22:23:56.332Z,83.41
2022-10-14T22:26:25.355Z,83.30
2022-10-14T22:29:00.476Z,83.65
2022-10-14T22:31:30.620Z,83.25
2022-10-14T22:34:02.335Z,83.39
2022-10-14T22:36:40.317Z,83.33
2022-10-14T22:39:11.657Z,83.47
2022-10-14T22:41:39.774Z,83.52
2022-10-14T22:44:09.702Z,83.57
2022-10-14T22:46:40.782Z,83.78
2022-10-14T22:49:10.383Z,83.64
2022-10-14T22:51:43.252Z,83.56
2022-10-14T22:54:12.760Z,83.66
2022-10-14T22:56:40.496Z,83.67
2022-10-14T22:59:10.241Z,83.55
2022-10-14T23:01:38.933Z,83.49
2022-10-14T23:04:07.654Z,83.66
2022-10-14T23:06:38.919Z,83.51
2022-10-14T23:09:06.588Z,83.57
2022-10-14T23:11:34.005Z,83.72
2022-10-14T23:14:04.417Z,83.67
2022-10-14T23:16:35.927Z,83.61
2022-10-14T23:19:03.629Z,83.73
2022-10-14T23:21:34.743Z,83.84
2022-10-14T23:24:03.619Z,84.08
2022-10-14T23:26:33.587Z,83.35
2022-10-14T23:29:02.629Z,83.29
2022-10-14T23:31:32.368Z,83.41
2022-10-14T23:34:05.128Z,83.47
2022-10-14T23:36:32.894Z,83.41
2022-10-14T23:39:00.241Z,83.67
2022-10-14T23:41:30.589Z,83.78
2022-10-14T23:43:57.537Z,83.45
2022-10-14T23:46:24.320Z,83.54
2022-10-14T23:49:01.215Z,83.44
2022-10-14T23:51:35.955Z,83.37
2022-10-14T23:54:03.428Z,83.37
2022-10-14T23:56:33.897Z,83.16
2022-10-14T23:59:02.174Z,83.27
